Time;durP1;ratioP1;P1;durP2;ratioP2;P2;SDS_P1;SDS_P2;PMS_P1;PMS_P2;Temp;Humidity;BMP_temperature;BMP_pressure;BME280_temperature;BME280_humidity;BME280_pressure;Samples;Min_cycle;Max_cycle;Signal;HPM_P1;HPM_P2
2021/12/26 00:00:17;;;;;;;4.85;4.45;;;-2.20;99.90;;;;;;5084825;28;20570;-58
2021/12/26 00:02:57;;;;;;;3.72;3.42;;;-2.20;99.90;;;;;;5146912;27;21062;-59
2021/12/26 00:05:36;;;;;;;5.28;4.40;;;-2.20;99.90;;;;;;5084601;27;21267;-58
2021/12/26 00:08:16;;;;;;;4.75;4.35;;;-2.20;99.90;;;;;;5084161;27;20543;-59
2021/12/26 00:10:56;;;;;;;3.97;3.67;;;-2.20;99.90;;;;;;5088002;27;20897;-59
2021/12/26 00:13:37;;;;;;;4.93;4.53;;;-2.20;99.90;;;;;;5149996;27;20539;-58
2021/12/26 00:16:16;;;;;;;4.70;4.30;;;-2.20;99.90;;;;;;5083953;28;20565;-58
2021/12/26 00:18:55;;;;;;;4.40;4.05;;;-2.20;99.90;;;;;;5081497;27;21458;-58
2021/12/26 00:21:35;;;;;;;4.72;4.32;;;-2.20;99.90;;;;;;5101320;27;20701;-58
2021/12/26 00:24:15;;;;;;;5.13;4.63;;;-2.30;99.90;;;;;;5082933;27;20586;-58
2021/12/26 00:26:55;;;;;;;5.20;4.70;;;-2.20;99.90;;;;;;5083658;28;20679;-58
2021/12/26 00:29:35;;;;;;;5.70;5.20;;;-2.20;99.90;;;;;;5145888;27;20567;-59
2021/12/26 00:32:15;;;;;;;5.45;4.95;;;-2.20;99.90;;;;;;5084736;28;20663;-58
2021/12/26 00:34:54;;;;;;;5.05;4.65;;;-2.20;99.90;;;;;;5104583;27;20669;-59
2021/12/26 00:37:34;;;;;;;5.38;4.80;;;-2.20;99.90;;;;;;5146060;27;20539;-58
2021/12/26 00:40:18;;;;;;;4.53;4.15;;;-2.30;99.90;;;;;;5084602;27;20556;-59
2021/12/26 00:42:57;;;;;;;7.60;4.80;;;-2.20;99.90;;;;;;5084711;27;20581;-58
2021/12/26 00:45:37;;;;;;;5.60;5.10;;;-2.30;99.90;;;;;;5082515;28;20701;-59
2021/12/26 00:48:17;;;;;;;5.47;4.97;;;-2.30;99.90;;;;;;5145916;27;21193;-59
2021/12/26 00:50:57;;;;;;;4.82;4.43;;;-2.30;99.90;;;;;;5159754;27;20549;-59
2021/12/26 00:53:36;;;;;;;5.53;5.03;;;-2.20;99.90;;;;;;5084409;28;20569;-59
2021/12/26 00:56:17;;;;;;;6.13;5.63;;;-2.20;99.90;;;;;;5083825;27;20683;-58
2021/12/26 00:58:56;;;;;;;5.40;4.95;;;-2.20;99.90;;;;;;5105515;27;20538;-58
2021/12/26 01:01:36;;;;;;;5.43;4.93;;;-2.20;99.90;;;;;;5125974;27;21022;-59
2021/12/26 01:04:16;;;;;;;5.70;5.20;;;-2.20;99.90;;;;;;5084648;27;21080;-59
2021/12/26 01:06:55;;;;;;;6.57;5.97;;;-2.20;99.90;;;;;;5084926;27;20551;-59
2021/12/26 01:09:36;;;;;;;6.10;5.50;;;-2.20;99.90;;;;;;5084620;28;20667;-58
2021/12/26 01:12:16;;;;;;;6.18;5.65;;;-2.10;99.90;;;;;;5109733;27;20711;-59
2021/12/26 01:14:59;;;;;;;6.22;5.72;;;-2.10;99.90;;;;;;5083089;28;21213;-59
2021/12/26 01:17:43;;;;;;;5.97;5.47;;;-2.10;99.90;;;;;;5124829;27;20528;-58
2021/12/26 01:20:39;;;;;;;5.38;4.88;;;-2.10;99.90;;;;;;5137581;27;20587;-59
2021/12/26 01:23:21;;;;;;;5.97;5.47;;;-2.10;99.90;;;;;;5104940;27;20674;-58
2021/12/26 01:26:00;;;;;;;5.32;4.85;;;-2.10;99.90;;;;;;5104113;27;20689;-59
2021/12/26 01:28:40;;;;;;;5.80;5.30;;;-2.10;99.90;;;;;;5084525;28;21217;-58
2021/12/26 01:31:22;;;;;;;5.95;5.45;;;-2.10;99.90;;;;;;5084577;27;20555;-58
2021/12/26 01:34:04;;;;;;;6.15;5.70;;;-2.10;99.90;;;;;;5105192;27;20526;-58
2021/12/26 01:36:44;;;;;;;6.10;5.60;;;-2.10;99.90;;;;;;5084035;27;20573;-58
2021/12/26 01:39:24;;;;;;;6.20;5.63;;;-2.00;99.90;;;;;;5084314;27;21081;-58
2021/12/26 01:42:04;;;;;;;6.00;5.40;;;-2.00;99.90;;;;;;5084725;28;20655;-58
2021/12/26 01:44:43;;;;;;;5.78;5.28;;;-2.00;99.90;;;;;;5104752;27;20666;-58
2021/12/26 01:47:23;;;;;;;7.00;6.40;;;-2.00;99.90;;;;;;5079009;27;20569;-58
2021/12/26 01:50:04;;;;;;;5.35;4.93;;;-2.00;99.90;;;;;;5078042;28;20681;-58
2021/12/26 01:52:43;;;;;;;5.72;5.25;;;-2.00;99.90;;;;;;5084744;28;20539;-59
2021/12/26 01:55:25;;;;;;;5.80;5.30;;;-2.00;99.90;;;;;;5084286;28;20539;-58
2021/12/26 01:58:07;;;;;;;6.28;5.78;;;-2.00;99.90;;;;;;5125260;27;20532;-58
2021/12/26 02:00:50;;;;;;;5.30;4.90;;;-2.00;99.90;;;;;;5084753;27;20742;-58
2021/12/26 02:03:29;;;;;;;5.03;4.63;;;-2.00;99.90;;;;;;5104825;27;20541;-58
2021/12/26 02:06:18;;;;;;;5.18;4.68;;;-2.00;99.90;;;;;;5104325;27;20654;-59
2021/12/26 02:08:58;;;;;;;5.80;5.30;;;-2.00;99.90;;;;;;5103115;27;21148;-58
2021/12/26 02:11:38;;;;;;;6.10;5.60;;;-2.00;99.90;;;;;;5125489;27;20924;-58
2021/12/26 02:14:18;;;;;;;6.15;5.65;;;-1.90;99.90;;;;;;5075577;28;20557;-58
2021/12/26 02:16:58;;;;;;;6.05;5.45;;;-1.90;99.90;;;;;;5084241;27;20543;-58
2021/12/26 02:19:42;;;;;;;6.05;5.55;;;-1.90;99.90;;;;;;5096703;27;20553;-59
2021/12/26 02:22:28;;;;;;;6.25;5.78;;;-1.90;99.90;;;;;;5160809;27;20537;-58
2021/12/26 02:25:25;;;;;;;4.97;4.65;;;-1.90;99.90;;;;;;5144340;27;21049;-58
2021/12/26 02:28:05;;;;;;;6.85;6.25;;;-1.90;99.90;;;;;;5084830;27;20607;-59
2021/12/26 02:30:46;;;;;;;5.85;5.40;;;-1.90;99.90;;;;;;5085012;28;20668;-59
2021/12/26 02:33:25;;;;;;;4.90;4.53;;;-1.90;99.90;;;;;;5084283;27;20687;-58
2021/12/26 02:36:06;;;;;;;5.85;5.35;;;-1.90;99.90;;;;;;5124957;27;20544;-58
2021/12/26 02:38:47;;;;;;;6.65;6.00;;;-1.80;99.90;;;;;;5125688;27;20543;-58
2021/12/26 02:41:26;;;;;;;7.25;6.65;;;-1.80;99.90;;;;;;5104573;27;20697;-59
2021/12/26 02:44:06;;;;;;;6.35;5.35;;;-1.80;99.90;;;;;;5084387;27;20547;-58
2021/12/26 02:46:46;;;;;;;6.15;5.65;;;-1.80;99.90;;;;;;5117843;27;20707;-58
2021/12/26 02:49:27;;;;;;;6.78;6.22;;;-1.80;99.90;;;;;;5081634;27;20547;-58
2021/12/26 02:52:07;;;;;;;6.30;5.80;;;-1.80;99.90;;;;;;5080432;27;20552;-58
2021/12/26 02:54:47;;;;;;;6.63;5.53;;;-1.80;99.90;;;;;;5112107;27;20961;-58
2021/12/26 02:57:27;;;;;;;5.75;5.35;;;-1.80;99.90;;;;;;5103760;27;21038;-58
2021/12/26 03:00:11;;;;;;;6.68;6.10;;;-1.80;99.90;;;;;;5078367;28;20560;-59
2021/12/26 03:02:52;;;;;;;5.80;5.35;;;-1.70;99.90;;;;;;5084485;28;21192;-57
2021/12/26 03:05:36;;;;;;;6.60;6.10;;;-1.70;99.90;;;;;;5083562;28;20711;-58
2021/12/26 03:08:17;;;;;;;6.15;5.65;;;-1.80;99.90;;;;;;5126005;27;20536;-58
2021/12/26 03:10:57;;;;;;;6.32;5.82;;;-1.80;99.90;;;;;;5083898;27;20576;-59
2021/12/26 03:13:37;;;;;;;6.80;6.30;;;-1.70;99.90;;;;;;5105048;27;20674;-59
2021/12/26 03:16:17;;;;;;;6.35;5.85;;;-1.70;99.90;;;;;;5083705;28;21212;-59
2021/12/26 03:18:59;;;;;;;6.90;6.40;;;-1.70;99.90;;;;;;5104517;27;20534;-59
2021/12/26 03:21:38;;;;;;;6.75;6.25;;;-1.70;99.90;;;;;;5083590;28;20691;-58
2021/12/26 03:24:18;;;;;;;6.85;6.35;;;-1.70;99.90;;;;;;5083107;28;21052;-59
2021/12/26 03:27:00;;;;;;;6.95;6.45;;;-1.70;99.90;;;;;;5104318;27;20553;-59
2021/12/26 03:29:41;;;;;;;7.22;6.53;;;-1.80;99.90;;;;;;5145968;27;20669;-59
2021/12/26 03:32:20;;;;;;;6.47;5.97;;;-1.80;99.90;;;;;;5146506;27;20828;-58
2021/12/26 03:35:00;;;;;;;7.00;6.40;;;-1.80;99.90;;;;;;5104167;27;20550;-58
2021/12/26 03:37:42;;;;;;;7.20;6.55;;;-1.80;99.90;;;;;;5084443;28;20547;-58
2021/12/26 03:40:22;;;;;;;7.15;6.55;;;-1.80;99.90;;;;;;5125241;27;20552;-58
2021/12/26 03:43:01;;;;;;;7.57;6.97;;;-1.80;99.90;;;;;;5102556;27;20678;-58
2021/12/26 03:45:44;;;;;;;7.82;7.22;;;-1.80;99.90;;;;;;5081156;28;20561;-58
2021/12/26 03:48:27;;;;;;;7.47;6.82;;;-1.80;99.90;;;;;;5104360;27;20686;-59
2021/12/26 03:51:06;;;;;;;7.85;7.25;;;-1.80;99.90;;;;;;5068415;28;20690;-58
2021/12/26 03:53:45;;;;;;;6.32;5.78;;;-1.80;99.90;;;;;;5083953;28;20660;-58
2021/12/26 03:56:25;;;;;;;7.70;7.00;;;-1.90;99.90;;;;;;5097342;27;20547;-58
2021/12/26 03:59:05;;;;;;;8.15;7.45;;;-1.90;99.90;;;;;;5145814;27;20956;-59
2021/12/26 04:01:45;;;;;;;6.57;6.07;;;-1.90;99.90;;;;;;5105903;27;20615;-59
2021/12/26 04:04:25;;;;;;;7.63;6.97;;;-1.90;99.90;;;;;;5084314;27;21064;-59
2021/12/26 04:07:05;;;;;;;7.78;7.18;;;-1.90;99.90;;;;;;5146198;27;20534;-59
2021/12/26 04:09:45;;;;;;;7.35;6.72;;;-1.90;99.90;;;;;;5125687;27;20672;-58
2021/12/26 04:12:24;;;;;;;7.63;6.78;;;-1.90;99.90;;;;;;5085158;27;20948;-58
2021/12/26 04:15:06;;;;;;;7.05;6.50;;;-1.90;99.90;;;;;;5084669;28;21020;-58
2021/12/26 04:17:45;;;;;;;6.47;5.88;;;-1.90;99.90;;;;;;5104755;27;20670;-59
2021/12/26 04:20:28;;;;;;;6.78;6.28;;;-2.00;99.90;;;;;;5083668;27;20564;-58
2021/12/26 04:23:08;;;;;;;7.15;6.53;;;-1.90;99.90;;;;;;5084553;28;20664;-59
2021/12/26 04:25:49;;;;;;;7.40;6.80;;;-1.90;99.90;;;;;;5119388;27;20956;-58
2021/12/26 04:28:28;;;;;;;7.50;6.90;;;-1.90;99.90;;;;;;5101167;27;21213;-59
2021/12/26 04:31:08;;;;;;;7.40;6.80;;;-1.90;99.90;;;;;;5114161;27;20564;-59
2021/12/26 04:33:48;;;;;;;7.53;6.75;;;-1.90;99.90;;;;;;5084965;28;20555;-58
2021/12/26 04:36:27;;;;;;;7.75;7.07;;;-1.90;99.90;;;;;;5090768;27;20560;-58
2021/12/26 04:39:07;;;;;;;7.25;6.65;;;-2.00;99.90;;;;;;5105168;27;20693;-58
2021/12/26 04:41:47;;;;;;;7.45;6.85;;;-2.00;99.90;;;;;;5126288;27;21203;-58
2021/12/26 04:44:28;;;;;;;7.55;6.90;;;-2.00;99.90;;;;;;5082726;27;21081;-58
2021/12/26 04:47:07;;;;;;;8.00;7.32;;;-2.00;99.90;;;;;;5098985;27;20554;-59
2021/12/26 04:49:47;;;;;;;7.78;7.18;;;-2.00;99.90;;;;;;5120342;27;20715;-58
2021/12/26 04:52:26;;;;;;;7.28;6.68;;;-2.00;99.90;;;;;;5145583;27;20965;-58
2021/12/26 04:55:07;;;;;;;7.95;7.22;;;-2.10;99.90;;;;;;5084304;27;20543;-59
2021/12/26 04:57:47;;;;;;;7.75;7.05;;;-2.10;99.90;;;;;;5096018;27;20564;-58
2021/12/26 05:00:29;;;;;;;7.18;6.60;;;-2.10;99.90;;;;;;5122876;27;20572;-58
2021/12/26 05:03:08;;;;;;;7.15;6.57;;;-2.10;99.90;;;;;;5104779;27;21203;-58
2021/12/26 05:05:47;;;;;;;7.50;6.90;;;-2.10;99.90;;;;;;5084023;27;21076;-58
2021/12/26 05:08:27;;;;;;;7.63;7.03;;;-2.10;99.90;;;;;;5081904;27;20568;-58
2021/12/26 05:11:07;;;;;;;8.00;7.20;;;-2.10;99.90;;;;;;5052326;27;20612;-58
2021/12/26 05:13:47;;;;;;;7.47;6.88;;;-2.10;99.90;;;;;;5089973;27;21095;-58
2021/12/26 05:16:26;;;;;;;7.68;6.88;;;-2.10;99.90;;;;;;5083579;28;21612;-58
2021/12/26 05:19:06;;;;;;;7.65;7.00;;;-2.10;99.90;;;;;;5084513;27;21060;-58
2021/12/26 05:21:46;;;;;;;7.95;7.30;;;-2.10;99.90;;;;;;5125598;27;20580;-58
2021/12/26 05:24:26;;;;;;;7.72;7.03;;;-2.10;99.90;;;;;;5104912;27;20557;-58
2021/12/26 05:27:07;;;;;;;7.43;6.80;;;-2.10;99.90;;;;;;5085406;27;20527;-58
2021/12/26 05:29:46;;;;;;;7.40;6.70;;;-2.10;99.90;;;;;;5061380;27;20616;-59
2021/12/26 05:32:26;;;;;;;7.03;6.40;;;-2.10;99.90;;;;;;5124148;27;20559;-59
2021/12/26 05:35:06;;;;;;;7.72;7.13;;;-2.10;99.90;;;;;;5078778;27;20555;-58
2021/12/26 05:37:46;;;;;;;6.50;5.95;;;-2.10;99.90;;;;;;5115543;27;20541;-59
2021/12/26 05:40:25;;;;;;;6.82;6.32;;;-2.10;99.90;;;;;;5141876;27;20962;-58
2021/12/26 05:43:05;;;;;;;6.53;5.97;;;-2.20;99.90;;;;;;5084617;28;20543;-58
2021/12/26 05:45:45;;;;;;;7.43;6.82;;;-2.20;99.90;;;;;;5097427;27;21070;-58
2021/12/26 05:48:24;;;;;;;7.63;6.82;;;-2.20;99.90;;;;;;5104210;27;20550;-58
2021/12/26 05:51:04;;;;;;;6.00;5.50;;;-2.20;99.90;;;;;;5143153;27;20560;-58
2021/12/26 05:53:44;;;;;;;6.75;6.25;;;-2.30;99.90;;;;;;5083426;28;20675;-58
2021/12/26 05:56:24;;;;;;;6.70;6.20;;;-2.30;99.90;;;;;;5138195;27;21021;-57
2021/12/26 05:59:04;;;;;;;7.32;6.72;;;-2.30;99.90;;;;;;5125672;27;20540;-58
2021/12/26 06:01:43;;;;;;;7.13;6.43;;;-2.30;99.90;;;;;;5084882;27;20544;-59
2021/12/26 06:04:24;;;;;;;6.32;5.82;;;-2.30;99.90;;;;;;5083996;27;20539;-58
2021/12/26 06:07:04;;;;;;;7.28;6.57;;;-2.30;99.90;;;;;;5104918;27;20668;-58
2021/12/26 06:09:43;;;;;;;6.60;6.00;;;-2.30;99.90;;;;;;5084886;27;20579;-58
2021/12/26 06:12:23;;;;;;;6.57;6.00;;;-2.30;99.90;;;;;;5146437;27;20542;-58
2021/12/26 06:15:04;;;;;;;6.22;5.63;;;-2.30;99.90;;;;;;5084399;27;20539;-58
2021/12/26 06:17:43;;;;;;;6.15;5.65;;;-2.30;99.90;;;;;;5084465;27;20554;-59
2021/12/26 06:20:22;;;;;;;6.15;5.60;;;-2.30;99.90;;;;;;5083479;27;20636;-58
2021/12/26 06:23:02;;;;;;;5.68;5.18;;;-2.30;99.90;;;;;;5084535;28;21040;-58
2021/12/26 06:25:42;;;;;;;6.85;6.25;;;-2.30;99.90;;;;;;5084090;27;20699;-58
2021/12/26 06:28:22;;;;;;;6.03;5.50;;;-2.40;99.90;;;;;;5104985;27;20677;-58
2021/12/26 06:31:02;;;;;;;6.28;5.72;;;-2.40;99.90;;;;;;5145932;27;20603;-58
2021/12/26 06:33:42;;;;;;;6.47;5.90;;;-2.40;99.90;;;;;;5084308;27;20551;-58
2021/12/26 06:36:21;;;;;;;5.28;4.78;;;-2.40;99.90;;;;;;5082593;27;20552;-58
2021/12/26 06:39:01;;;;;;;5.43;4.93;;;-2.40;99.90;;;;;;5145791;27;21020;-58
2021/12/26 06:41:41;;;;;;;5.47;4.97;;;-2.50;99.90;;;;;;5084653;28;20676;-58
2021/12/26 06:44:21;;;;;;;5.32;4.88;;;-2.50;99.90;;;;;;5084504;28;20664;-58
2021/12/26 06:47:01;;;;;;;6.03;4.85;;;-2.50;99.90;;;;;;5102318;27;20681;-58
2021/12/26 06:49:43;;;;;;;5.63;5.07;;;-2.50;99.90;;;;;;5084353;28;21066;-58
2021/12/26 06:52:22;;;;;;;5.25;4.85;;;-2.50;99.90;;;;;;5145443;27;20657;-58
2021/12/26 06:55:02;;;;;;;4.95;4.45;;;-2.50;99.90;;;;;;5104767;27;20757;-59
2021/12/26 06:57:43;;;;;;;5.20;4.78;;;-2.50;99.90;;;;;;5105255;27;21133;-58
2021/12/26 07:00:23;;;;;;;4.82;4.32;;;-2.50;99.90;;;;;;5079531;27;20595;-58
2021/12/26 07:03:03;;;;;;;5.15;4.75;;;-2.50;99.90;;;;;;5084505;27;20854;-59
2021/12/26 07:05:43;;;;;;;6.05;4.90;;;-2.50;99.90;;;;;;5104027;27;20749;-58
2021/12/26 07:08:22;;;;;;;5.85;5.45;;;-2.50;99.90;;;;;;5104988;27;21230;-59
2021/12/26 07:11:02;;;;;;;4.90;4.38;;;-2.50;99.90;;;;;;5082645;28;20629;-58
2021/12/26 07:13:42;;;;;;;5.15;4.75;;;-2.50;99.90;;;;;;5083839;28;20676;-59
2021/12/26 07:16:22;;;;;;;7.53;6.70;;;-2.50;99.90;;;;;;5083990;27;20613;-58
2021/12/26 07:19:02;;;;;;;5.35;4.85;;;-2.50;99.90;;;;;;5153142;27;20941;-59
2021/12/26 07:21:42;;;;;;;5.05;4.65;;;-2.50;99.90;;;;;;5083926;27;21217;-59
2021/12/26 07:24:33;;;;;;;5.18;4.68;;;-2.50;99.90;;;;;;5084229;28;20577;-58
2021/12/26 07:27:13;;;;;;;5.03;4.53;;;-2.50;99.90;;;;;;5085043;27;20547;-58
2021/12/26 07:29:53;;;;;;;4.70;4.30;;;-2.50;99.90;;;;;;5125420;27;20544;-58
2021/12/26 07:32:33;;;;;;;5.03;4.55;;;-2.40;99.90;;;;;;5084665;27;20540;-59
2021/12/26 07:35:13;;;;;;;5.25;4.75;;;-2.40;99.90;;;;;;5104180;27;20576;-58
2021/12/26 07:37:53;;;;;;;5.20;4.70;;;-2.40;99.90;;;;;;5146578;27;20534;-58
2021/12/26 07:40:32;;;;;;;4.30;3.90;;;-2.50;99.90;;;;;;5082494;28;20683;-58
2021/12/26 07:43:12;;;;;;;5.05;4.65;;;-2.50;99.90;;;;;;5123215;27;20532;-58
2021/12/26 07:45:52;;;;;;;4.57;4.18;;;-2.40;99.90;;;;;;5081450;28;20656;-58
2021/12/26 07:48:32;;;;;;;5.18;4.78;;;-2.40;99.90;;;;;;5146116;27;20542;-58
2021/12/26 07:51:12;;;;;;;4.55;4.10;;;-2.30;99.90;;;;;;5067699;27;21145;-58
2021/12/26 07:53:51;;;;;;;4.22;3.88;;;-2.30;99.90;;;;;;5076298;27;20547;-58
2021/12/26 07:56:32;;;;;;;7.78;4.05;;;-2.20;99.90;;;;;;5083372;27;20575;-58
2021/12/26 07:59:12;;;;;;;4.80;4.00;;;-2.20;99.90;;;;;;5078011;28;21524;-58
2021/12/26 08:01:52;;;;;;;4.70;4.30;;;-2.20;99.90;;;;;;5124323;27;20683;-58
2021/12/26 08:04:32;;;;;;;4.40;4.00;;;-2.30;99.90;;;;;;5083265;27;20753;-59
2021/12/26 08:07:12;;;;;;;4.47;4.07;;;-2.20;99.90;;;;;;5101368;27;22164;-58
2021/12/26 08:09:52;;;;;;;4.53;4.15;;;-2.10;99.90;;;;;;5079334;28;21089;-58
2021/12/26 08:12:32;;;;;;;5.63;5.15;;;-2.10;99.90;;;;;;5084991;27;20593;-58
2021/12/26 08:15:12;;;;;;;5.00;4.60;;;-2.00;99.90;;;;;;5084404;27;21130;-59
2021/12/26 08:17:51;;;;;;;6.40;5.80;;;-2.00;99.90;;;;;;5084421;27;20540;-58
2021/12/26 08:20:31;;;;;;;5.10;4.70;;;-1.90;99.90;;;;;;5154967;27;20629;-58
2021/12/26 08:23:11;;;;;;;3.97;3.67;;;-1.90;99.90;;;;;;5083044;28;20699;-59
2021/12/26 08:25:51;;;;;;;4.72;3.70;;;-1.80;99.90;;;;;;5084177;28;21208;-59
2021/12/26 08:28:31;;;;;;;5.15;4.20;;;-1.70;99.90;;;;;;5104359;27;20753;-59
2021/12/26 08:31:11;;;;;;;3.92;3.63;;;-1.70;99.90;;;;;;5146292;27;20554;-58
2021/12/26 08:33:50;;;;;;;4.70;4.30;;;-1.70;99.90;;;;;;5104841;27;20677;-58
2021/12/26 08:36:30;;;;;;;3.65;3.35;;;-1.60;99.90;;;;;;5083535;27;20577;-58
2021/12/26 08:39:10;;;;;;;6.30;5.25;;;-1.60;99.90;;;;;;5085024;28;21193;-59
2021/12/26 08:41:50;;;;;;;4.88;4.47;;;-1.50;99.90;;;;;;5084785;27;21088;-58
2021/12/26 08:44:29;;;;;;;5.63;4.70;;;-1.40;99.90;;;;;;5145371;27;20538;-59
2021/12/26 08:47:11;;;;;;;4.25;3.95;;;-1.20;99.90;;;;;;5144492;27;20546;-60
2021/12/26 08:49:51;;;;;;;4.07;3.70;;;-1.10;99.90;;;;;;5103767;27;20553;-58
2021/12/26 08:52:31;;;;;;;5.72;5.22;;;-1.20;99.90;;;;;;5124682;27;20544;-59
2021/12/26 08:55:11;;;;;;;4.50;4.15;;;-1.20;99.90;;;;;;5083716;27;20556;-58
2021/12/26 08:57:51;;;;;;;5.57;3.97;;;-1.20;99.90;;;;;;5083835;28;20958;-58
2021/12/26 09:00:32;;;;;;;4.40;3.95;;;-1.20;99.90;;;;;;5094355;27;21036;-58
2021/12/26 09:03:12;;;;;;;4.28;3.88;;;-1.30;99.90;;;;;;5140604;27;20584;-58
2021/12/26 09:05:51;;;;;;;3.97;3.50;;;-1.20;99.90;;;;;;5142503;27;20546;-58
2021/12/26 09:08:31;;;;;;;4.60;4.13;;;-1.00;99.90;;;;;;5120369;27;20570;-58
2021/12/26 09:11:11;;;;;;;5.07;4.13;;;-1.00;99.90;;;;;;5124344;27;20556;-59
2021/12/26 09:13:51;;;;;;;4.07;3.78;;;-1.00;99.90;;;;;;5104362;27;20674;-58
2021/12/26 09:16:33;;;;;;;4.07;3.78;;;-0.80;99.90;;;;;;5124323;27;20675;-59
2021/12/26 09:19:14;;;;;;;4.20;3.85;;;-0.70;99.90;;;;;;5111577;27;20583;-58
2021/12/26 09:21:54;;;;;;;4.22;3.83;;;-0.70;99.90;;;;;;5132413;27;20640;-58
2021/12/26 09:24:33;;;;;;;3.90;3.53;;;-0.70;99.90;;;;;;5121860;27;21052;-58
2021/12/26 09:27:14;;;;;;;5.03;4.63;;;-0.70;99.90;;;;;;5142874;27;20542;-58
2021/12/26 09:29:53;;;;;;;4.57;4.18;;;-0.70;99.90;;;;;;5081276;28;20632;-58
2021/12/26 09:32:33;;;;;;;4.53;4.13;;;-0.50;99.90;;;;;;5081840;27;20891;-59
2021/12/26 09:35:14;;;;;;;4.10;3.70;;;-0.40;99.90;;;;;;5075751;27;20685;-58
2021/12/26 09:37:52;;;;;;;5.20;4.55;;;-0.30;99.90;;;;;;5080738;28;21036;-58
2021/12/26 09:40:32;;;;;;;4.63;4.22;;;-0.30;99.90;;;;;;5134568;27;20569;-58
2021/12/26 09:43:12;;;;;;;4.05;3.67;;;-0.20;99.90;;;;;;5083194;27;20955;-58
2021/12/26 09:45:52;;;;;;;3.80;3.50;;;-0.20;99.90;;;;;;5124004;27;20656;-58
2021/12/26 09:48:32;;;;;;;4.20;3.80;;;-0.10;99.90;;;;;;5104371;27;20525;-58
2021/12/26 09:51:12;;;;;;;6.07;5.53;;;-0.20;99.90;;;;;;5144892;27;21021;-58
2021/12/26 09:53:51;;;;;;;4.70;4.25;;;-0.20;99.90;;;;;;5084186;27;21083;-58
2021/12/26 09:56:32;;;;;;;5.43;4.70;;;-0.10;99.90;;;;;;5083808;27;20547;-58
2021/12/26 09:59:18;;;;;;;4.60;4.20;;;-0.10;99.90;;;;;;5124548;27;20668;-58
2021/12/26 10:02:06;;;;;;;4.88;4.47;;;-0.10;99.90;;;;;;5125535;27;20540;-58
2021/12/26 10:04:46;;;;;;;6.30;5.75;;;-0.20;99.90;;;;;;5083135;27;20544;-58
2021/12/26 10:07:26;;;;;;;4.88;4.47;;;0.00;99.90;;;;;;5124059;27;21016;-58
2021/12/26 10:10:08;;;;;;;4.47;4.07;;;0.00;99.90;;;;;;5083530;27;21092;-58
2021/12/26 10:12:48;;;;;;;4.65;4.25;;;0.00;99.90;;;;;;5124832;27;20528;-58
2021/12/26 10:15:47;;;;;;;4.05;3.75;;;0.10;99.90;;;;;;5103701;27;20889;-59
2021/12/26 10:18:30;;;;;;;4.75;4.35;;;0.00;99.90;;;;;;5083794;28;20613;-58
2021/12/26 10:21:39;;;;;;;7.22;6.32;;;0.00;99.90;;;;;;5103779;27;20554;-58
2021/12/26 10:24:22;;;;;;;5.55;5.05;;;-0.10;99.90;;;;;;5102811;27;20897;-58
2021/12/26 10:27:04;;;;;;;5.38;4.97;;;-0.10;99.90;;;;;;5104135;27;20661;-58
2021/12/26 10:29:46;;;;;;;4.10;3.78;;;0.10;99.90;;;;;;5125035;27;20556;-58
2021/12/26 10:32:28;;;;;;;4.57;4.18;;;0.20;99.90;;;;;;5084583;27;20546;-58
2021/12/26 10:35:11;;;;;;;4.97;4.47;;;0.40;99.90;;;;;;5124393;27;21115;-59
2021/12/26 10:37:52;;;;;;;5.40;4.90;;;0.40;99.90;;;;;;5083890;27;20551;-58
2021/12/26 10:40:32;;;;;;;4.65;4.00;;;0.50;99.90;;;;;;5104078;27;20650;-58
2021/12/26 10:43:12;;;;;;;4.40;4.00;;;0.60;99.90;;;;;;5145701;27;20677;-58
2021/12/26 10:45:51;;;;;;;4.05;3.75;;;0.70;99.90;;;;;;5104357;27;20615;-58
2021/12/26 10:48:31;;;;;;;4.78;4.38;;;0.70;99.90;;;;;;5145186;27;20564;-58
2021/12/26 10:51:34;;;;;;;4.22;3.83;;;0.80;99.90;;;;;;5104548;27;21062;-58
2021/12/26 10:54:18;;;;;;;4.20;3.80;;;0.70;99.90;;;;;;5104253;27;20603;-58
2021/12/26 10:57:10;;;;;;;4.20;3.80;;;0.50;99.90;;;;;;5102263;27;20558;-58
2021/12/26 11:00:04;;;;;;;4.25;3.85;;;0.40;99.90;;;;;;5083500;27;20587;-58
2021/12/26 11:02:45;;;;;;;4.07;3.72;;;0.50;99.90;;;;;;5105103;27;20530;-58
2021/12/26 11:05:26;;;;;;;4.03;3.67;;;0.50;99.90;;;;;;5103491;27;20622;-58
2021/12/26 11:08:08;;;;;;;4.70;4.30;;;0.60;99.90;;;;;;5104010;27;20591;-58
2021/12/26 11:10:51;;;;;;;4.18;3.78;;;0.50;99.90;;;;;;5103794;27;20690;-58
2021/12/26 11:13:32;;;;;;;4.47;3.95;;;0.40;99.90;;;;;;5084109;28;20668;-58
2021/12/26 11:16:15;;;;;;;4.57;4.18;;;0.50;99.90;;;;;;5083336;27;21108;-58
2021/12/26 11:18:55;;;;;;;3.67;3.30;;;0.60;99.90;;;;;;5084560;27;21096;-58
2021/12/26 11:21:35;;;;;;;5.53;4.57;;;0.70;99.90;;;;;;5145801;27;20551;-58
2021/12/26 11:24:14;;;;;;;4.55;4.15;;;0.60;99.90;;;;;;5084231;27;20544;-58
2021/12/26 11:26:54;;;;;;;4.03;3.63;;;0.40;99.90;;;;;;5084187;27;20549;-58
2021/12/26 11:29:35;;;;;;;4.72;4.25;;;0.10;99.90;;;;;;5146082;27;21051;-58
2021/12/26 11:32:14;;;;;;;5.03;4.18;;;-0.10;99.90;;;;;;5084945;27;21057;-59
2021/12/26 11:34:55;;;;;;;4.40;4.00;;;-0.30;99.90;;;;;;5104486;27;20674;-58
2021/12/26 11:37:34;;;;;;;4.93;4.43;;;-0.30;99.90;;;;;;5104527;27;20666;-58
2021/12/26 11:40:16;;;;;;;4.22;3.92;;;-0.20;99.90;;;;;;5084466;28;21241;-58
2021/12/26 11:43:26;;;;;;;4.93;4.53;;;-0.10;99.90;;;;;;5105157;27;20654;-58
2021/12/26 11:46:16;;;;;;;4.63;4.22;;;0.30;99.90;;;;;;5145286;27;20545;-58
2021/12/26 11:49:18;;;;;;;4.38;3.97;;;0.60;99.90;;;;;;5084791;27;20549;-58
2021/12/26 11:52:10;;;;;;;4.22;3.83;;;0.90;99.90;;;;;;5146234;27;21015;-58
2021/12/26 11:54:57;;;;;;;4.63;4.22;;;1.00;99.90;;;;;;5104189;27;20542;-58
2021/12/26 11:58:13;;;;;;;5.35;4.85;;;1.20;99.90;;;;;;5104565;27;20957;-58
2021/12/26 12:00:54;;;;;;;7.30;5.10;;;1.40;99.90;;;;;;5084172;27;20551;-58
2021/12/26 12:03:34;;;;;;;4.57;4.15;;;1.50;99.90;;;;;;5104659;27;21062;-58
2021/12/26 12:06:26;;;;;;;4.20;3.90;;;1.60;99.90;;;;;;5104374;27;21179;-58
2021/12/26 12:09:24;;;;;;;4.45;4.05;;;1.50;99.90;;;;;;5084358;28;21145;-58
2021/12/26 12:12:08;;;;;;;4.88;4.40;;;1.50;99.90;;;;;;5105317;27;20537;-58
2021/12/26 12:14:54;;;;;;;4.57;3.85;;;1.50;99.90;;;;;;5083804;27;21024;-58
2021/12/26 12:17:35;;;;;;;4.68;4.20;;;1.40;99.90;;;;;;5104461;27;20549;-58
2021/12/26 12:20:20;;;;;;;5.72;5.22;;;1.40;99.90;;;;;;5145645;27;20674;-58
2021/12/26 12:23:19;;;;;;;5.20;4.72;;;1.10;99.90;;;;;;5146144;27;20681;-58
2021/12/26 12:25:58;;;;;;;4.95;4.07;;;1.10;99.90;;;;;;5098185;27;21125;-58
2021/12/26 12:28:44;;;;;;;4.55;4.15;;;1.10;99.90;;;;;;5082022;27;20599;-58
2021/12/26 12:31:24;;;;;;;5.28;4.00;;;1.00;99.90;;;;;;5066321;28;20981;-58
2021/12/26 12:34:06;;;;;;;5.68;5.18;;;1.00;99.90;;;;;;5103854;27;20595;-58
2021/12/26 12:36:46;;;;;;;5.40;4.13;;;0.80;99.90;;;;;;5104647;27;20978;-58
2021/12/26 12:39:25;;;;;;;4.22;3.83;;;0.90;99.90;;;;;;5084374;27;20536;-59
2021/12/26 12:42:16;;;;;;;5.22;4.78;;;0.80;99.90;;;;;;5084996;27;20543;-58
2021/12/26 12:45:00;;;;;;;4.53;4.13;;;0.60;99.90;;;;;;5084143;27;20545;-58
2021/12/26 12:47:39;;;;;;;4.32;3.97;;;0.60;99.90;;;;;;5104696;27;20662;-58
2021/12/26 12:50:32;;;;;;;4.97;4.55;;;0.60;99.90;;;;;;5145832;27;20677;-58
2021/12/26 12:53:38;;;;;;;5.75;4.97;;;0.40;99.90;;;;;;5084820;27;20905;-58
2021/12/26 12:56:45;;;;;;;5.32;4.65;;;0.40;99.90;;;;;;5084425;27;20557;-58
2021/12/26 12:59:48;;;;;;;4.93;4.45;;;0.50;99.90;;;;;;5084486;27;21014;-58
2021/12/26 13:02:34;;;;;;;4.82;4.43;;;0.40;99.90;;;;;;5084657;28;20671;-58
2021/12/26 13:05:14;;;;;;;4.95;4.50;;;0.30;99.90;;;;;;5124603;27;20678;-58
2021/12/26 13:08:00;;;;;;;6.30;4.55;;;0.10;99.90;;;;;;5084105;28;20589;-59
2021/12/26 13:10:40;;;;;;;6.88;4.78;;;0.10;99.90;;;;;;5082901;28;20635;-58
2021/12/26 13:13:21;;;;;;;5.75;5.25;;;0.00;99.90;;;;;;5082762;27;20572;-59
2021/12/26 13:16:04;;;;;;;5.63;4.88;;;-0.10;99.90;;;;;;5084030;28;21177;-58
2021/12/26 13:18:44;;;;;;;5.85;4.95;;;-0.10;99.90;;;;;;5084497;27;20556;-57
2021/12/26 13:21:27;;;;;;;4.97;4.53;;;-0.10;99.90;;;;;;5125314;27;20555;-59
2021/12/26 13:24:07;;;;;;;4.90;4.40;;;-0.10;99.90;;;;;;5084298;28;20861;-58
2021/12/26 13:26:47;;;;;;;5.53;4.53;;;-0.20;99.90;;;;;;5125604;27;20539;-58
2021/12/26 13:29:27;;;;;;;5.32;4.82;;;-0.40;99.90;;;;;;5104471;27;20541;-59
2021/12/26 13:32:07;;;;;;;7.03;6.35;;;-0.40;99.90;;;;;;5084900;27;20552;-58
2021/12/26 13:34:54;;;;;;;6.10;5.50;;;-0.40;99.90;;;;;;5144867;27;20896;-58
2021/12/26 13:37:35;;;;;;;5.13;4.10;;;-0.50;99.90;;;;;;5122573;27;20568;-59
2021/12/26 13:40:14;;;;;;;6.32;5.30;;;-0.50;99.90;;;;;;5145617;27;20554;-59
2021/12/26 13:42:54;;;;;;;5.28;4.78;;;-0.50;99.90;;;;;;5105263;27;20595;-58
2021/12/26 13:45:37;;;;;;;5.70;5.20;;;-0.40;99.90;;;;;;5124676;27;20567;-58
2021/12/26 13:48:31;;;;;;;7.88;7.18;;;-0.50;99.90;;;;;;5104362;27;21162;-58
2021/12/26 13:51:20;;;;;;;7.22;6.05;;;-0.60;99.90;;;;;;5084305;27;21055;-58
2021/12/26 13:54:06;;;;;;;4.82;4.43;;;-0.60;99.90;;;;;;5104496;27;20662;-59
2021/12/26 13:56:50;;;;;;;5.80;5.13;;;-0.60;99.90;;;;;;5083942;28;21025;-59
2021/12/26 13:59:36;;;;;;;5.43;4.95;;;-0.60;99.90;;;;;;5104913;27;20669;-58
2021/12/26 14:02:19;;;;;;;5.90;5.38;;;-0.60;99.90;;;;;;5146857;27;21012;-59